sensor_id;sensor_type;location;lat;lon;timestamp;temperature;humidity
61255;DHT22;47128;47.530;8.584;2023-05-15T00:01:14;11.70;99.90
61255;DHT22;47128;47.530;8.584;2023-05-15T00:03:39;11.70;99.90
61255;DHT22;47128;47.530;8.584;2023-05-15T00:06:05;11.70;99.90
61255;DHT22;47128;47.530;8.584;2023-05-15T00:08:30;11.70;99.90
61255;DHT22;47128;47.530;8.584;2023-05-15T00:10:56;11.70;99.90
61255;DHT22;47128;47.530;8.584;2023-05-15T00:13:21;11.60;99.90
61255;DHT22;47128;47.530;8.584;2023-05-15T00:15:47;11.60;99.90
61255;DHT22;47128;47.530;8.584;2023-05-15T00:18:12;11.70;99.90
61255;DHT22;47128;47.530;8.584;2023-05-15T00:20:38;11.60;99.90
61255;DHT22;47128;47.530;8.584;2023-05-15T00:23:03;11.60;99.90
61255;DHT22;47128;47.530;8.584;2023-05-15T00:25:28;11.60;99.90
61255;DHT22;47128;47.530;8.584;2023-05-15T00:27:54;11.50;99.90
61255;DHT22;47128;47.530;8.584;2023-05-15T00:30:20;11.50;99.90
61255;DHT22;47128;47.530;8.584;2023-05-15T00:32:45;11.50;99.90
61255;DHT22;47128;47.530;8.584;2023-05-15T00:35:11;11.50;99.90
61255;DHT22;47128;47.530;8.584;2023-05-15T00:37:36;11.50;99.90
61255;DHT22;47128;47.530;8.584;2023-05-15T00:40:02;11.50;99.90
61255;DHT22;47128;47.530;8.584;2023-05-15T00:42:27;11.50;99.90
61255;DHT22;47128;47.530;8.584;2023-05-15T00:44:53;11.50;99.90
61255;DHT22;47128;47.530;8.584;2023-05-15T00:47:20;11.50;99.90
61255;DHT22;47128;47.530;8.584;2023-05-15T00:49:46;11.60;99.90
61255;DHT22;47128;47.530;8.584;2023-05-15T00:52:13;11.70;99.90
61255;DHT22;47128;47.530;8.584;2023-05-15T00:54:38;11.70;99.90
61255;DHT22;47128;47.530;8.584;2023-05-15T00:57:04;11.60;99.90
61255;DHT22;47128;47.530;8.584;2023-05-15T00:59:30;11.60;99.90
61255;DHT22;47128;47.530;8.584;2023-05-15T01:01:56;11.70;99.90
61255;DHT22;47128;47.530;8.584;2023-05-15T01:04:22;11.60;99.90
61255;DHT22;47128;47.530;8.584;2023-05-15T01:06:48;11.70;99.90
61255;DHT22;47128;47.530;8.584;2023-05-15T01:09:13;11.70;99.90
61255;DHT22;47128;47.530;8.584;2023-05-15T01:11:39;11.80;99.90
61255;DHT22;47128;47.530;8.584;2023-05-15T01:14:06;11.80;99.90
61255;DHT22;47128;47.530;8.584;2023-05-15T01:16:32;11.80;99.90
61255;DHT22;47128;47.530;8.584;2023-05-15T01:18:58;11.70;99.90
61255;DHT22;47128;47.530;8.584;2023-05-15T01:21:35;11.70;99.90
61255;DHT22;47128;47.530;8.584;2023-05-15T01:27:05;11.60;99.90
61255;DHT22;47128;47.530;8.584;2023-05-15T01:29:36;11.70;99.90
61255;DHT22;47128;47.530;8.584;2023-05-15T01:32:06;11.70;99.90
61255;DHT22;47128;47.530;8.584;2023-05-15T01:34:37;11.60;99.90
61255;DHT22;47128;47.530;8.584;2023-05-15T01:37:05;11.60;99.90
61255;DHT22;47128;47.530;8.584;2023-05-15T01:39:32;11.60;99.90
61255;DHT22;47128;47.530;8.584;2023-05-15T01:42:08;11.60;99.90
61255;DHT22;47128;47.530;8.584;2023-05-15T01:44:44;11.60;99.90
61255;DHT22;47128;47.530;8.584;2023-05-15T01:47:14;11.60;99.90
61255;DHT22;47128;47.530;8.584;2023-05-15T01:49:42;11.60;99.90
61255;DHT22;47128;47.530;8.584;2023-05-15T01:54:34;11.60;99.90
61255;DHT22;47128;47.530;8.584;2023-05-15T01:57:00;11.60;99.90
61255;DHT22;47128;47.530;8.584;2023-05-15T01:59:27;11.70;99.90
61255;DHT22;47128;47.530;8.584;2023-05-15T02:01:53;11.60;99.90
61255;DHT22;47128;47.530;8.584;2023-05-15T02:04:19;11.60;99.90
61255;DHT22;47128;47.530;8.584;2023-05-15T02:06:45;11.70;99.90
61255;DHT22;47128;47.530;8.584;2023-05-15T02:09:11;11.60;99.90
61255;DHT22;47128;47.530;8.584;2023-05-15T02:11:37;11.60;99.90
61255;DHT22;47128;47.530;8.584;2023-05-15T02:14:03;11.60;99.90
61255;DHT22;47128;47.530;8.584;2023-05-15T02:16:29;11.60;99.90
61255;DHT22;47128;47.530;8.584;2023-05-15T02:18:54;11.60;99.90
61255;DHT22;47128;47.530;8.584;2023-05-15T02:21:20;11.60;99.90
61255;DHT22;47128;47.530;8.584;2023-05-15T02:23:46;11.60;99.90
61255;DHT22;47128;47.530;8.584;2023-05-15T02:26:13;11.60;99.90
61255;DHT22;47128;47.530;8.584;2023-05-15T02:31:17;11.50;99.90
61255;DHT22;47128;47.530;8.584;2023-05-15T02:33:45;11.40;99.90
61255;DHT22;47128;47.530;8.584;2023-05-15T02:36:16;11.40;99.90
61255;DHT22;47128;47.530;8.584;2023-05-15T02:38:48;11.40;99.90
61255;DHT22;47128;47.530;8.584;2023-05-15T02:41:15;11.40;99.90
61255;DHT22;47128;47.530;8.584;2023-05-15T02:43:41;11.40;99.90
61255;DHT22;47128;47.530;8.584;2023-05-15T02:46:08;11.50;99.90
61255;DHT22;47128;47.530;8.584;2023-05-15T02:48:34;11.50;99.90
61255;DHT22;47128;47.530;8.584;2023-05-15T02:51:00;11.40;99.90
61255;DHT22;47128;47.530;8.584;2023-05-15T02:53:25;11.40;99.90
61255;DHT22;47128;47.530;8.584;2023-05-15T02:55:52;11.40;99.90
61255;DHT22;47128;47.530;8.584;2023-05-15T02:58:18;11.40;99.90
61255;DHT22;47128;47.530;8.584;2023-05-15T03:00:43;11.30;99.90
61255;DHT22;47128;47.530;8.584;2023-05-15T03:03:09;11.30;99.90
61255;DHT22;47128;47.530;8.584;2023-05-15T03:05:34;11.30;99.90
61255;DHT22;47128;47.530;8.584;2023-05-15T03:08:00;11.30;99.90
61255;DHT22;47128;47.530;8.584;2023-05-15T03:10:25;11.30;99.90
61255;DHT22;47128;47.530;8.584;2023-05-15T03:12:51;11.30;99.90
61255;DHT22;47128;47.530;8.584;2023-05-15T03:15:16;11.30;99.90
61255;DHT22;47128;47.530;8.584;2023-05-15T03:17:42;11.30;99.90
61255;DHT22;47128;47.530;8.584;2023-05-15T03:20:08;11.30;99.90
61255;DHT22;47128;47.530;8.584;2023-05-15T03:22:33;11.40;99.90
61255;DHT22;47128;47.530;8.584;2023-05-15T03:24:59;11.40;99.90
61255;DHT22;47128;47.530;8.584;2023-05-15T03:27:26;11.40;99.90
61255;DHT22;47128;47.530;8.584;2023-05-15T03:29:52;11.40;99.90
61255;DHT22;47128;47.530;8.584;2023-05-15T03:32:17;11.40;99.90
61255;DHT22;47128;47.530;8.584;2023-05-15T03:34:43;11.30;99.90
61255;DHT22;47128;47.530;8.584;2023-05-15T03:37:08;11.30;99.90
61255;DHT22;47128;47.530;8.584;2023-05-15T03:39:34;11.40;99.90
61255;DHT22;47128;47.530;8.584;2023-05-15T03:41:59;11.30;99.90
61255;DHT22;47128;47.530;8.584;2023-05-15T03:44:25;11.30;99.90
61255;DHT22;47128;47.530;8.584;2023-05-15T03:46:50;11.30;99.90
61255;DHT22;47128;47.530;8.584;2023-05-15T03:49:15;11.30;99.90
61255;DHT22;47128;47.530;8.584;2023-05-15T03:51:41;11.30;99.90
61255;DHT22;47128;47.530;8.584;2023-05-15T03:54:07;11.30;99.90
61255;DHT22;47128;47.530;8.584;2023-05-15T03:56:32;11.30;99.90
61255;DHT22;47128;47.530;8.584;2023-05-15T03:58:58;11.30;99.90
61255;DHT22;47128;47.530;8.584;2023-05-15T04:01:23;11.30;99.90
61255;DHT22;47128;47.530;8.584;2023-05-15T04:03:49;11.30;99.90
61255;DHT22;47128;47.530;8.584;2023-05-15T04:06:15;11.30;99.90
61255;DHT22;47128;47.530;8.584;2023-05-15T04:08:40;11.20;99.90
61255;DHT22;47128;47.530;8.584;2023-05-15T04:11:06;11.20;99.90
61255;DHT22;47128;47.530;8.584;2023-05-15T04:13:31;11.10;99.90
61255;DHT22;47128;47.530;8.584;2023-05-15T04:15:57;11.10;99.90
61255;DHT22;47128;47.530;8.584;2023-05-15T04:18:24;11.10;99.90
61255;DHT22;47128;47.530;8.584;2023-05-15T04:20:49;11.00;99.90
61255;DHT22;47128;47.530;8.584;2023-05-15T04:23:16;11.10;99.90
61255;DHT22;47128;47.530;8.584;2023-05-15T04:25:42;11.10;99.90
61255;DHT22;47128;47.530;8.584;2023-05-15T04:28:11;11.10;99.90
61255;DHT22;47128;47.530;8.584;2023-05-15T04:30:36;11.10;99.90
61255;DHT22;47128;47.530;8.584;2023-05-15T04:33:02;11.20;99.90
61255;DHT22;47128;47.530;8.584;2023-05-15T04:35:28;11.20;99.90
61255;DHT22;47128;47.530;8.584;2023-05-15T04:37:53;11.20;99.90
61255;DHT22;47128;47.530;8.584;2023-05-15T04:40:19;11.20;99.90
61255;DHT22;47128;47.530;8.584;2023-05-15T04:42:45;11.30;99.90
61255;DHT22;47128;47.530;8.584;2023-05-15T04:45:10;11.30;99.90
61255;DHT22;47128;47.530;8.584;2023-05-15T04:50:39;11.30;99.90
61255;DHT22;47128;47.530;8.584;2023-05-15T04:53:04;11.40;99.90
61255;DHT22;47128;47.530;8.584;2023-05-15T04:55:30;11.40;99.90
61255;DHT22;47128;47.530;8.584;2023-05-15T04:57:56;11.50;99.90
61255;DHT22;47128;47.530;8.584;2023-05-15T05:00:21;11.50;99.90
61255;DHT22;47128;47.530;8.584;2023-05-15T05:02:47;11.50;99.90
61255;DHT22;47128;47.530;8.584;2023-05-15T05:05:12;11.50;99.90
61255;DHT22;47128;47.530;8.584;2023-05-15T05:07:39;11.50;99.90
61255;DHT22;47128;47.530;8.584;2023-05-15T05:10:04;11.50;99.90
61255;DHT22;47128;47.530;8.584;2023-05-15T05:12:30;11.50;99.90
61255;DHT22;47128;47.530;8.584;2023-05-15T05:14:55;11.60;99.90
61255;DHT22;47128;47.530;8.584;2023-05-15T05:17:21;11.60;99.90
61255;DHT22;47128;47.530;8.584;2023-05-15T05:19:46;11.60;99.90
61255;DHT22;47128;47.530;8.584;2023-05-15T05:22:12;11.70;99.90
61255;DHT22;47128;47.530;8.584;2023-05-15T05:24:38;11.80;99.90
61255;DHT22;47128;47.530;8.584;2023-05-15T05:27:04;11.80;99.90
61255;DHT22;47128;47.530;8.584;2023-05-15T05:29:30;11.90;99.90
61255;DHT22;47128;47.530;8.584;2023-05-15T05:31:56;12.00;99.90
61255;DHT22;47128;47.530;8.584;2023-05-15T05:34:21;12.10;99.90
61255;DHT22;47128;47.530;8.584;2023-05-15T05:39:20;12.40;99.90
61255;DHT22;47128;47.530;8.584;2023-05-15T05:41:45;12.40;99.90
61255;DHT22;47128;47.530;8.584;2023-05-15T05:44:25;12.40;99.90
61255;DHT22;47128;47.530;8.584;2023-05-15T05:52:42;12.30;99.90
61255;DHT22;47128;47.530;8.584;2023-05-15T05:55:08;12.20;99.90
61255;DHT22;47128;47.530;8.584;2023-05-15T05:57:35;12.10;99.90
61255;DHT22;47128;47.530;8.584;2023-05-15T06:00:00;12.10;99.90
61255;DHT22;47128;47.530;8.584;2023-05-15T06:02:26;12.00;99.90
61255;DHT22;47128;47.530;8.584;2023-05-15T06:07:56;12.00;99.90
61255;DHT22;47128;47.530;8.584;2023-05-15T06:10:22;12.00;99.90
61255;DHT22;47128;47.530;8.584;2023-05-15T06:12:47;12.00;99.90
61255;DHT22;47128;47.530;8.584;2023-05-15T06:15:13;12.00;99.90
61255;DHT22;47128;47.530;8.584;2023-05-15T06:17:38;11.90;99.90
61255;DHT22;47128;47.530;8.584;2023-05-15T06:26:10;11.80;99.90
61255;DHT22;47128;47.530;8.584;2023-05-15T06:28:36;11.70;99.90
61255;DHT22;47128;47.530;8.584;2023-05-15T06:31:01;11.70;99.90
61255;DHT22;47128;47.530;8.584;2023-05-15T06:33:29;11.70;99.90
61255;DHT22;47128;47.530;8.584;2023-05-15T06:35:55;11.70;99.90
61255;DHT22;47128;47.530;8.584;2023-05-15T06:38:20;11.70;99.90
61255;DHT22;47128;47.530;8.584;2023-05-15T06:40:48;11.80;99.90
61255;DHT22;47128;47.530;8.584;2023-05-15T06:43:14;11.80;99.90
61255;DHT22;47128;47.530;8.584;2023-05-15T06:45:39;11.80;99.90
61255;DHT22;47128;47.530;8.584;2023-05-15T06:48:05;11.90;99.90
61255;DHT22;47128;47.530;8.584;2023-05-15T06:53:46;11.90;99.90
61255;DHT22;47128;47.530;8.584;2023-05-15T06:56:11;11.90;99.90
61255;DHT22;47128;47.530;8.584;2023-05-15T06:58:47;11.90;99.90
61255;DHT22;47128;47.530;8.584;2023-05-15T07:01:12;11.90;99.90
61255;DHT22;47128;47.530;8.584;2023-05-15T07:03:38;11.90;99.90
61255;DHT22;47128;47.530;8.584;2023-05-15T07:06:04;11.90;99.90
61255;DHT22;47128;47.530;8.584;2023-05-15T07:08:30;11.80;99.90
61255;DHT22;47128;47.530;8.584;2023-05-15T07:10:55;11.80;99.90
61255;DHT22;47128;47.530;8.584;2023-05-15T07:13:21;11.90;99.90
61255;DHT22;47128;47.530;8.584;2023-05-15T07:15:46;11.90;99.90
61255;DHT22;47128;47.530;8.584;2023-05-15T07:18:12;11.90;99.90
61255;DHT22;47128;47.530;8.584;2023-05-15T07:20:37;11.90;99.90
61255;DHT22;47128;47.530;8.584;2023-05-15T07:29:15;11.90;99.90
61255;DHT22;47128;47.530;8.584;2023-05-15T07:31:40;11.90;99.90
61255;DHT22;47128;47.530;8.584;2023-05-15T07:34:09;11.90;99.90
61255;DHT22;47128;47.530;8.584;2023-05-15T07:36:35;11.90;99.90
61255;DHT22;47128;47.530;8.584;2023-05-15T07:42:04;11.90;99.90
61255;DHT22;47128;47.530;8.584;2023-05-15T07:44:29;11.90;99.90
61255;DHT22;47128;47.530;8.584;2023-05-15T07:46:55;11.90;99.90
61255;DHT22;47128;47.530;8.584;2023-05-15T07:49:21;11.90;99.90
61255;DHT22;47128;47.530;8.584;2023-05-15T07:51:47;11.90;99.90
61255;DHT22;47128;47.530;8.584;2023-05-15T07:54:12;11.90;99.90
61255;DHT22;47128;47.530;8.584;2023-05-15T07:56:38;11.90;99.90
61255;DHT22;47128;47.530;8.584;2023-05-15T08:02:27;11.80;99.90
61255;DHT22;47128;47.530;8.584;2023-05-15T08:04:53;11.90;99.90
61255;DHT22;47128;47.530;8.584;2023-05-15T08:07:19;12.00;99.90
61255;DHT22;47128;47.530;8.584;2023-05-15T08:09:54;12.10;99.90
61255;DHT22;47128;47.530;8.584;2023-05-15T08:15:23;12.10;99.90
61255;DHT22;47128;47.530;8.584;2023-05-15T08:17:49;12.20;99.90
61255;DHT22;47128;47.530;8.584;2023-05-15T08:20:15;12.30;99.90
61255;DHT22;47128;47.530;8.584;2023-05-15T08:22:41;12.30;99.90
61255;DHT22;47128;47.530;8.584;2023-05-15T08:25:07;12.40;99.90
61255;DHT22;47128;47.530;8.584;2023-05-15T08:27:33;12.50;99.90
61255;DHT22;47128;47.530;8.584;2023-05-15T08:29:59;12.60;99.90
61255;DHT22;47128;47.530;8.584;2023-05-15T08:32:28;12.70;99.90
61255;DHT22;47128;47.530;8.584;2023-05-15T08:34:53;12.80;99.90
61255;DHT22;47128;47.530;8.584;2023-05-15T08:37:19;12.90;99.90
61255;DHT22;47128;47.530;8.584;2023-05-15T08:39:44;13.00;99.90
61255;DHT22;47128;47.530;8.584;2023-05-15T08:42:18;13.00;99.90
61255;DHT22;47128;47.530;8.584;2023-05-15T08:44:53;13.00;99.90
61255;DHT22;47128;47.530;8.584;2023-05-15T08:47:20;13.00;99.90
61255;DHT22;47128;47.530;8.584;2023-05-15T08:50:02;13.00;99.90
61255;DHT22;47128;47.530;8.584;2023-05-15T08:52:33;13.10;99.90
61255;DHT22;47128;47.530;8.584;2023-05-15T08:54:59;13.00;99.90
61255;DHT22;47128;47.530;8.584;2023-05-15T08:57:26;13.00;99.90
61255;DHT22;47128;47.530;8.584;2023-05-15T08:59:54;13.00;99.90
61255;DHT22;47128;47.530;8.584;2023-05-15T09:05:33;12.90;99.90
61255;DHT22;47128;47.530;8.584;2023-05-15T09:07:59;12.90;99.90
61255;DHT22;47128;47.530;8.584;2023-05-15T09:10:28;13.00;99.90
61255;DHT22;47128;47.530;8.584;2023-05-15T09:12:56;13.00;99.90
61255;DHT22;47128;47.530;8.584;2023-05-15T09:15:22;13.30;99.90
61255;DHT22;47128;47.530;8.584;2023-05-15T09:17:51;13.40;99.90
61255;DHT22;47128;47.530;8.584;2023-05-15T09:20:30;13.60;99.90
61255;DHT22;47128;47.530;8.584;2023-05-15T09:22:56;13.80;99.90
61255;DHT22;47128;47.530;8.584;2023-05-15T09:25:38;14.10;99.90
61255;DHT22;47128;47.530;8.584;2023-05-15T09:28:04;14.20;99.90
61255;DHT22;47128;47.530;8.584;2023-05-15T09:30:30;14.30;99.90
61255;DHT22;47128;47.530;8.584;2023-05-15T09:32:59;14.40;99.90
61255;DHT22;47128;47.530;8.584;2023-05-15T09:35:35;14.40;99.90
61255;DHT22;47128;47.530;8.584;2023-05-15T09:38:02;14.20;99.90
61255;DHT22;47128;47.530;8.584;2023-05-15T09:40:29;13.90;99.90
61255;DHT22;47128;47.530;8.584;2023-05-15T09:42:56;13.80;99.90
61255;DHT22;47128;47.530;8.584;2023-05-15T09:45:23;13.70;99.90
61255;DHT22;47128;47.530;8.584;2023-05-15T09:47:54;13.80;99.90
61255;DHT22;47128;47.530;8.584;2023-05-15T09:53:27;13.80;99.90
61255;DHT22;47128;47.530;8.584;2023-05-15T09:55:52;13.80;99.90
61255;DHT22;47128;47.530;8.584;2023-05-15T09:58:19;13.80;99.90
61255;DHT22;47128;47.530;8.584;2023-05-15T10:00:47;13.90;99.90
61255;DHT22;47128;47.530;8.584;2023-05-15T10:03:13;14.00;99.90
61255;DHT22;47128;47.530;8.584;2023-05-15T10:05:39;14.20;99.90
61255;DHT22;47128;47.530;8.584;2023-05-15T10:11:08;15.00;99.90
61255;DHT22;47128;47.530;8.584;2023-05-15T10:19:14;15.40;99.90
61255;DHT22;47128;47.530;8.584;2023-05-15T10:21:40;15.30;99.90
61255;DHT22;47128;47.530;8.584;2023-05-15T10:27:07;15.20;99.90
61255;DHT22;47128;47.530;8.584;2023-05-15T10:32:36;15.30;99.90
61255;DHT22;47128;47.530;8.584;2023-05-15T10:35:01;15.20;99.90
61255;DHT22;47128;47.530;8.584;2023-05-15T10:43:33;15.50;99.90
61255;DHT22;47128;47.530;8.584;2023-05-15T10:45:59;15.90;99.90
61255;DHT22;47128;47.530;8.584;2023-05-15T10:48:25;16.00;99.90
61255;DHT22;47128;47.530;8.584;2023-05-15T10:50:52;16.20;99.90
61255;DHT22;47128;47.530;8.584;2023-05-15T10:53:18;16.40;99.90
61255;DHT22;47128;47.530;8.584;2023-05-15T10:55:43;16.40;99.90
61255;DHT22;47128;47.530;8.584;2023-05-15T10:58:10;16.50;99.90
61255;DHT22;47128;47.530;8.584;2023-05-15T11:00:43;16.60;99.90
61255;DHT22;47128;47.530;8.584;2023-05-15T11:03:34;16.40;99.90
61255;DHT22;47128;47.530;8.584;2023-05-15T11:11:59;16.90;99.90
61255;DHT22;47128;47.530;8.584;2023-05-15T11:19:23;17.20;99.90
61255;DHT22;47128;47.530;8.584;2023-05-15T11:22:16;17.40;99.90
61255;DHT22;47128;47.530;8.584;2023-05-15T11:27:45;17.40;99.90
61255;DHT22;47128;47.530;8.584;2023-05-15T11:33:15;17.70;99.90
61255;DHT22;47128;47.530;8.584;2023-05-15T11:35:45;18.00;97.10
61255;DHT22;47128;47.530;8.584;2023-05-15T11:38:15;18.30;98.70
61255;DHT22;47128;47.530;8.584;2023-05-15T11:40:46;18.60;97.00
61255;DHT22;47128;47.530;8.584;2023-05-15T11:43:24;18.80;97.60
61255;DHT22;47128;47.530;8.584;2023-05-15T11:45:51;18.80;95.50
61255;DHT22;47128;47.530;8.584;2023-05-15T11:48:20;18.20;96.30
61255;DHT22;47128;47.530;8.584;2023-05-15T11:50:46;17.80;97.20
61255;DHT22;47128;47.530;8.584;2023-05-15T11:53:12;17.50;97.30
61255;DHT22;47128;47.530;8.584;2023-05-15T11:55:39;17.50;97.80
61255;DHT22;47128;47.530;8.584;2023-05-15T11:58:09;17.90;97.30
61255;DHT22;47128;47.530;8.584;2023-05-15T12:00:36;18.30;98.20
61255;DHT22;47128;47.530;8.584;2023-05-15T12:03:02;18.70;97.40
61255;DHT22;47128;47.530;8.584;2023-05-15T12:14:47;19.40;94.90
61255;DHT22;47128;47.530;8.584;2023-05-15T12:20:16;18.90;95.00
61255;DHT22;47128;47.530;8.584;2023-05-15T12:25:10;18.20;95.10
61255;DHT22;47128;47.530;8.584;2023-05-15T12:27:36;18.10;96.00
61255;DHT22;47128;47.530;8.584;2023-05-15T12:30:03;18.10;96.40
61255;DHT22;47128;47.530;8.584;2023-05-15T12:32:30;18.00;95.50
61255;DHT22;47128;47.530;8.584;2023-05-15T12:34:56;18.10;95.20
61255;DHT22;47128;47.530;8.584;2023-05-15T12:37:22;18.40;96.00
61255;DHT22;47128;47.530;8.584;2023-05-15T12:39:49;18.70;95.60
61255;DHT22;47128;47.530;8.584;2023-05-15T12:42:15;18.60;94.70
61255;DHT22;47128;47.530;8.584;2023-05-15T12:44:41;18.30;95.00
61255;DHT22;47128;47.530;8.584;2023-05-15T12:47:07;18.40;95.50
61255;DHT22;47128;47.530;8.584;2023-05-15T12:49:36;18.30;95.10
61255;DHT22;47128;47.530;8.584;2023-05-15T12:52:09;18.20;95.30
61255;DHT22;47128;47.530;8.584;2023-05-15T12:54:38;18.10;94.60
61255;DHT22;47128;47.530;8.584;2023-05-15T13:03:11;18.10;94.60
61255;DHT22;47128;47.530;8.584;2023-05-15T13:11:44;17.90;94.80
61255;DHT22;47128;47.530;8.584;2023-05-15T13:14:10;18.00;94.50
61255;DHT22;47128;47.530;8.584;2023-05-15T13:16:41;17.90;94.30
61255;DHT22;47128;47.530;8.584;2023-05-15T13:19:09;17.50;94.40
61255;DHT22;47128;47.530;8.584;2023-05-15T13:21:34;17.20;93.70
61255;DHT22;47128;47.530;8.584;2023-05-15T13:30:06;15.90;96.20
61255;DHT22;47128;47.530;8.584;2023-05-15T13:32:32;15.80;96.30
61255;DHT22;47128;47.530;8.584;2023-05-15T13:34:58;15.80;96.60
61255;DHT22;47128;47.530;8.584;2023-05-15T13:37:24;15.70;96.60
61255;DHT22;47128;47.530;8.584;2023-05-15T13:39:49;15.50;97.60
61255;DHT22;47128;47.530;8.584;2023-05-15T13:42:15;15.30;98.70
61255;DHT22;47128;47.530;8.584;2023-05-15T13:44:40;15.40;99.90
61255;DHT22;47128;47.530;8.584;2023-05-15T13:47:07;15.20;99.90
61255;DHT22;47128;47.530;8.584;2023-05-15T14:00:12;13.50;99.90
61255;DHT22;47128;47.530;8.584;2023-05-15T14:02:42;13.40;99.90
61255;DHT22;47128;47.530;8.584;2023-05-15T14:08:16;13.10;99.90
61255;DHT22;47128;47.530;8.584;2023-05-15T14:10:42;13.00;99.90
61255;DHT22;47128;47.530;8.584;2023-05-15T14:13:07;12.90;99.90
61255;DHT22;47128;47.530;8.584;2023-05-15T14:27:33;13.10;99.90
61255;DHT22;47128;47.530;8.584;2023-05-15T14:33:02;13.30;99.90
61255;DHT22;47128;47.530;8.584;2023-05-15T14:35:28;13.50;99.90
61255;DHT22;47128;47.530;8.584;2023-05-15T14:37:54;13.60;99.90
61255;DHT22;47128;47.530;8.584;2023-05-15T14:40:19;13.80;99.90
61255;DHT22;47128;47.530;8.584;2023-05-15T14:42:45;13.90;99.90
61255;DHT22;47128;47.530;8.584;2023-05-15T14:51:17;14.50;99.90
61255;DHT22;47128;47.530;8.584;2023-05-15T14:53:42;14.60;99.90
61255;DHT22;47128;47.530;8.584;2023-05-15T14:56:08;14.50;99.90
61255;DHT22;47128;47.530;8.584;2023-05-15T14:58:34;14.60;99.90
61255;DHT22;47128;47.530;8.584;2023-05-15T15:00:59;14.60;99.90
61255;DHT22;47128;47.530;8.584;2023-05-15T15:08:17;15.50;99.90
61255;DHT22;47128;47.530;8.584;2023-05-15T15:11:00;15.50;99.90
61255;DHT22;47128;47.530;8.584;2023-05-15T15:16:29;16.20;99.90
61255;DHT22;47128;47.530;8.584;2023-05-15T15:21:58;16.60;99.90
61255;DHT22;47128;47.530;8.584;2023-05-15T15:24:23;16.30;99.90
61255;DHT22;47128;47.530;8.584;2023-05-15T15:26:49;16.10;99.90
61255;DHT22;47128;47.530;8.584;2023-05-15T15:29:14;16.10;99.90
61255;DHT22;47128;47.530;8.584;2023-05-15T15:31:40;16.10;99.90
61255;DHT22;47128;47.530;8.584;2023-05-15T15:34:06;15.90;99.90
61255;DHT22;47128;47.530;8.584;2023-05-15T15:36:33;15.80;99.90
61255;DHT22;47128;47.530;8.584;2023-05-15T15:39:01;15.60;99.90
61255;DHT22;47128;47.530;8.584;2023-05-15T15:41:30;15.70;99.90
61255;DHT22;47128;47.530;8.584;2023-05-15T15:43:56;15.90;99.90
61255;DHT22;47128;47.530;8.584;2023-05-15T15:46:21;16.20;99.90
61255;DHT22;47128;47.530;8.584;2023-05-15T15:48:47;16.50;99.90
61255;DHT22;47128;47.530;8.584;2023-05-15T15:51:12;16.70;99.90
61255;DHT22;47128;47.530;8.584;2023-05-15T15:53:38;16.70;99.90
61255;DHT22;47128;47.530;8.584;2023-05-15T15:56:04;16.80;99.90
61255;DHT22;47128;47.530;8.584;2023-05-15T15:58:30;16.60;99.90
61255;DHT22;47128;47.530;8.584;2023-05-15T16:00:56;16.60;99.90
61255;DHT22;47128;47.530;8.584;2023-05-15T16:03:21;16.60;99.90
61255;DHT22;47128;47.530;8.584;2023-05-15T16:05:47;16.50;99.90
61255;DHT22;47128;47.530;8.584;2023-05-15T16:08:12;16.40;99.90
61255;DHT22;47128;47.530;8.584;2023-05-15T16:10:38;16.30;99.90
61255;DHT22;47128;47.530;8.584;2023-05-15T16:13:03;16.20;99.90
61255;DHT22;47128;47.530;8.584;2023-05-15T16:18:32;16.00;99.90
61255;DHT22;47128;47.530;8.584;2023-05-15T16:20:57;16.00;99.90
61255;DHT22;47128;47.530;8.584;2023-05-15T16:23:23;15.90;99.90
61255;DHT22;47128;47.530;8.584;2023-05-15T16:25:49;16.00;99.90
61255;DHT22;47128;47.530;8.584;2023-05-15T16:28:14;16.00;99.90
61255;DHT22;47128;47.530;8.584;2023-05-15T16:30:40;15.90;99.90
61255;DHT22;47128;47.530;8.584;2023-05-15T16:33:05;15.90;99.90
61255;DHT22;47128;47.530;8.584;2023-05-15T16:35:31;16.00;99.90
61255;DHT22;47128;47.530;8.584;2023-05-15T16:38:01;15.90;99.90
61255;DHT22;47128;47.530;8.584;2023-05-15T16:40:26;15.90;99.90
61255;DHT22;47128;47.530;8.584;2023-05-15T16:42:52;16.00;99.90
61255;DHT22;47128;47.530;8.584;2023-05-15T16:45:17;16.20;99.90
61255;DHT22;47128;47.530;8.584;2023-05-15T16:47:43;16.20;99.90
61255;DHT22;47128;47.530;8.584;2023-05-15T16:50:08;16.30;99.90
61255;DHT22;47128;47.530;8.584;2023-05-15T16:52:34;16.20;99.90
61255;DHT22;47128;47.530;8.584;2023-05-15T16:55:02;16.10;99.90
61255;DHT22;47128;47.530;8.584;2023-05-15T16:57:28;16.00;99.90
61255;DHT22;47128;47.530;8.584;2023-05-15T16:59:54;16.00;99.90
61255;DHT22;47128;47.530;8.584;2023-05-15T17:02:20;15.90;99.90
61255;DHT22;47128;47.530;8.584;2023-05-15T17:04:46;16.00;99.90
61255;DHT22;47128;47.530;8.584;2023-05-15T17:07:12;15.80;99.90
61255;DHT22;47128;47.530;8.584;2023-05-15T17:09:37;15.70;99.90
61255;DHT22;47128;47.530;8.584;2023-05-15T17:12:05;15.70;99.90
61255;DHT22;47128;47.530;8.584;2023-05-15T17:14:30;15.60;99.90
61255;DHT22;47128;47.530;8.584;2023-05-15T17:16:56;15.50;99.90
61255;DHT22;47128;47.530;8.584;2023-05-15T17:19:22;15.40;99.90
61255;DHT22;47128;47.530;8.584;2023-05-15T17:21:47;15.30;99.90
61255;DHT22;47128;47.530;8.584;2023-05-15T17:24:13;15.30;99.90
61255;DHT22;47128;47.530;8.584;2023-05-15T17:26:40;15.10;99.90
61255;DHT22;47128;47.530;8.584;2023-05-15T17:29:06;15.20;99.90
61255;DHT22;47128;47.530;8.584;2023-05-15T17:31:31;15.20;99.90
61255;DHT22;47128;47.530;8.584;2023-05-15T17:33:59;15.30;99.90
61255;DHT22;47128;47.530;8.584;2023-05-15T17:36:25;15.30;99.90
61255;DHT22;47128;47.530;8.584;2023-05-15T17:38:51;15.30;99.90
61255;DHT22;47128;47.530;8.584;2023-05-15T17:41:16;15.40;99.90
61255;DHT22;47128;47.530;8.584;2023-05-15T17:43:42;15.30;99.90
61255;DHT22;47128;47.530;8.584;2023-05-15T17:46:07;15.30;99.90
61255;DHT22;47128;47.530;8.584;2023-05-15T17:48:33;15.30;99.90
61255;DHT22;47128;47.530;8.584;2023-05-15T17:50:59;15.20;99.90
61255;DHT22;47128;47.530;8.584;2023-05-15T17:53:25;15.10;99.90
61255;DHT22;47128;47.530;8.584;2023-05-15T17:55:51;15.10;99.90
61255;DHT22;47128;47.530;8.584;2023-05-15T17:58:17;15.00;99.90
61255;DHT22;47128;47.530;8.584;2023-05-15T18:00:45;15.00;99.90
61255;DHT22;47128;47.530;8.584;2023-05-15T18:03:11;15.00;99.90
61255;DHT22;47128;47.530;8.584;2023-05-15T18:05:37;14.90;99.90
61255;DHT22;47128;47.530;8.584;2023-05-15T18:08:03;15.00;99.90
61255;DHT22;47128;47.530;8.584;2023-05-15T18:10:29;14.90;99.90
61255;DHT22;47128;47.530;8.584;2023-05-15T18:12:55;14.70;99.90
61255;DHT22;47128;47.530;8.584;2023-05-15T18:15:20;14.70;99.90
61255;DHT22;47128;47.530;8.584;2023-05-15T18:17:46;14.50;99.90
61255;DHT22;47128;47.530;8.584;2023-05-15T18:20:12;14.40;99.90